Time,TemperatureF,DewpointF,PressureIn,WindDirection,WindDirectionDegrees,WindSpeedMPH,WindSpeedGustMPH,Humidity,HourlyPrecipIn,Conditions,Clouds,dailyrainin,SoftwareType,DateUTC
2013-10-13 00:11:00,37.0,28.0,-100.00,North,1,2.0,5.0,70,0.00,,,-99.99,,2013-10-13 07:11:00,
2013-10-13 00:42:00,36.0,28.0,-100.00,NE,34,3.0,4.0,73,0.00,,,-99.99,,2013-10-13 07:42:00,
2013-10-13 00:52:00,35.0,28.0,-100.00,NE,41,3.0,6.0,76,0.00,,,-99.99,,2013-10-13 07:52:00,
2013-10-13 01:02:00,35.0,28.0,-100.00,NE,41,3.0,6.0,76,0.00,,,-99.99,,2013-10-13 08:02:00,
2013-10-13 01:12:00,35.0,28.0,-100.00,NE,41,3.0,6.0,76,0.00,,,-99.99,,2013-10-13 08:12:00,
2013-10-13 01:22:00,35.0,28.0,-100.00,NE,56,3.0,5.0,76,0.00,,,-99.99,,2013-10-13 08:22:00,
2013-10-13 01:42:00,35.0,29.0,-100.00,NE,51,2.0,4.0,77,0.00,,,-99.99,,2013-10-13 08:42:00,
2013-10-13 02:22:00,35.0,28.0,-100.00,North,11,3.0,5.0,74,0.00,,,-99.99,,2013-10-13 09:22:00,
2013-10-13 02:33:00,35.0,28.0,-100.00,North,11,3.0,5.0,74,0.00,,,-99.99,,2013-10-13 09:33:00,
2013-10-13 03:43:00,35.0,28.0,-100.00,ENE,61,2.0,3.0,75,0.00,,,-99.99,,2013-10-13 10:43:00,
2013-10-13 03:53:00,34.0,27.0,-100.00,NNE,28,5.0,7.0,76,0.00,,,-99.99,,2013-10-13 10:53:00,
2013-10-13 04:03:00,34.0,27.0,-100.00,NNE,28,5.0,7.0,76,0.00,,,-99.99,,2013-10-13 11:03:00,
2013-10-13 04:21:00,33.0,27.0,-100.00,NNE,30,4.0,7.0,79,0.00,,,-99.99,,2013-10-13 11:21:00,
2013-10-13 04:42:00,33.0,27.0,-100.00,NNE,21,2.0,4.0,78,0.00,,,-99.99,,2013-10-13 11:42:00,
2013-10-13 05:12:00,35.0,28.0,-100.00,NE,49,2.0,4.0,74,0.00,,,-99.99,,2013-10-13 12:12:00,
2013-10-13 05:21:00,35.0,28.0,-100.00,NNE,31,2.0,5.0,75,0.00,,,-99.99,,2013-10-13 12:21:00,
2013-10-13 05:42:00,37.0,28.0,-100.00,ENE,65,3.0,6.0,69,0.00,,,-99.99,,2013-10-13 12:42:00,
2013-10-13 05:52:00,37.0,28.0,-100.00,ENE,65,3.0,6.0,69,0.00,,,-99.99,,2013-10-13 12:52:00,
2013-10-13 06:12:00,36.0,28.0,-100.00,NNE,13,2.0,6.0,71,0.00,,,-99.99,,2013-10-13 13:12:00,
2013-10-13 06:21:00,37.0,28.0,-100.00,ENE,72,2.0,6.0,70,0.00,,,-99.99,,2013-10-13 13:21:00,
2013-10-13 06:32:00,37.0,28.0,-100.00,ENE,72,2.0,6.0,70,0.00,,,-99.99,,2013-10-13 13:32:00,
2013-10-13 07:11:00,37.0,29.0,-100.00,North,8,3.0,13.0,73,0.00,,,-99.99,,2013-10-13 14:11:00,
2013-10-13 07:21:00,37.0,30.0,-100.00,North,359,4.0,12.0,77,0.00,,,-99.99,,2013-10-13 14:21:00,
2013-10-13 07:42:00,37.0,31.0,-100.00,North,6,5.0,12.0,78,0.00,,,-99.99,,2013-10-13 14:42:00,
2013-10-13 07:52:00,37.0,31.0,-100.00,North,6,5.0,12.0,78,0.00,,,-99.99,,2013-10-13 14:52:00,
2013-10-13 08:01:00,37.0,31.0,-100.00,North,6,5.0,12.0,78,0.00,,,-99.99,,2013-10-13 15:01:00,
2013-10-13 08:22:00,36.0,31.0,-100.00,NNE,14,6.0,14.0,81,0.00,,,-99.99,,2013-10-13 15:22:00,
2013-10-13 08:43:00,36.0,32.0,-100.00,NNE,13,4.0,9.0,84,0.00,,,-99.99,,2013-10-13 15:43:00,
2013-10-13 08:54:00,36.0,32.0,-100.00,NE,42,3.0,8.0,86,0.00,,,-99.99,,2013-10-13 15:54:00,
2013-10-13 09:03:00,36.0,32.0,-100.00,NE,42,3.0,8.0,86,0.00,,,-99.99,,2013-10-13 16:03:00,
2013-10-13 09:24:00,36.0,32.0,-100.00,East,88,2.0,10.0,86,0.00,,,-99.99,,2013-10-13 16:24:00,
2013-10-13 09:42:00,37.0,33.0,-100.00,ENE,69,5.0,13.0,84,0.00,,,-99.99,,2013-10-13 16:42:00,
2013-10-13 09:54:00,37.0,32.0,-100.00,NNE,25,3.0,8.0,83,0.00,,,-99.99,,2013-10-13 16:54:00,
2013-10-13 10:03:00,37.0,32.0,-100.00,NNE,25,3.0,8.0,83,0.00,,,-99.99,,2013-10-13 17:03:00,
2013-10-13 10:43:00,39.0,33.0,-100.00,NE,54,3.0,11.0,78,0.00,,,-99.99,,2013-10-13 17:43:00,
2013-10-13 10:52:00,39.0,33.0,-100.00,ENE,58,6.0,14.0,78,0.00,,,-99.99,,2013-10-13 17:52:00,
2013-10-13 11:02:00,39.0,33.0,-100.00,ENE,58,6.0,14.0,78,0.00,,,-99.99,,2013-10-13 18:02:00,
2013-10-13 11:21:00,39.0,32.0,-100.00,ENE,71,8.0,17.0,76,0.00,,,-99.99,,2013-10-13 18:21:00,
2013-10-13 11:42:00,39.0,32.0,-100.00,NE,38,5.0,17.0,75,0.00,,,-99.99,,2013-10-13 18:42:00,
2013-10-13 12:11:00,39.0,31.0,-100.00,NE,52,6.0,16.0,73,0.00,,,-99.99,,2013-10-13 19:11:00,
2013-10-13 12:21:00,41.0,31.0,-100.00,NE,37,6.0,15.0,67,0.00,,,-99.99,,2013-10-13 19:21:00,
2013-10-13 12:32:00,41.0,31.0,-100.00,NE,37,6.0,15.0,67,0.00,,,-99.99,,2013-10-13 19:32:00,
2013-10-13 13:11:00,43.0,32.0,-100.00,NNE,14,7.0,17.0,66,0.00,,,-99.99,,2013-10-13 20:11:00,
2013-10-13 13:22:00,43.0,32.0,-100.00,NNE,18,8.0,18.0,65,0.00,,,-99.99,,2013-10-13 20:22:00,
2013-10-13 13:43:00,44.0,32.0,-100.00,NNE,17,8.0,22.0,63,0.00,,,-99.99,,2013-10-13 20:43:00,
2013-10-13 13:52:00,44.0,32.0,-100.00,NNE,17,8.0,22.0,63,0.00,,,-99.99,,2013-10-13 20:52:00,
2013-10-13 14:11:00,43.0,31.0,-100.00,North,360,9.0,18.0,62,0.00,,,-99.99,,2013-10-13 21:11:00,
2013-10-13 14:21:00,45.0,32.0,-100.00,NE,40,6.0,17.0,59,0.00,,,-99.99,,2013-10-13 21:21:00,
2013-10-13 14:44:00,46.0,32.0,-100.00,NNE,28,5.0,14.0,57,0.00,,,-99.99,,2013-10-13 21:44:00,
2013-10-13 14:55:00,46.0,32.0,-100.00,NNE,28,5.0,14.0,57,0.00,,,-99.99,,2013-10-13 21:55:00,
2013-10-13 15:03:00,46.0,32.0,-100.00,NNE,28,5.0,14.0,57,0.00,,,-99.99,,2013-10-13 22:03:00,
2013-10-13 15:43:00,48.0,31.0,-100.00,NE,41,5.0,13.0,51,0.00,,,-99.99,,2013-10-13 22:43:00,
2013-10-13 15:53:00,48.0,29.0,-100.00,NE,35,5.0,13.0,47,0.00,,,-99.99,,2013-10-13 22:53:00,
2013-10-13 16:02:00,48.0,29.0,-100.00,NE,35,5.0,13.0,47,0.00,,,-99.99,,2013-10-13 23:02:00,
2013-10-13 16:42:00,48.0,30.0,-100.00,NNE,23,5.0,13.0,49,0.00,,,-99.99,,2013-10-13 23:42:00,
2013-10-13 16:52:00,48.0,30.0,-100.00,ENE,59,6.0,13.0,49,0.00,,,-99.99,,2013-10-13 23:52:00,
2013-10-13 17:01:00,48.0,30.0,-100.00,ENE,59,6.0,13.0,49,0.00,,,-99.99,,2013-10-14 00:01:00,
2013-10-13 17:21:00,48.0,29.0,-100.00,ENE,71,5.0,14.0,48,0.00,,,-99.99,,2013-10-14 00:21:00,
2013-10-13 17:32:00,48.0,29.0,-100.00,ENE,71,5.0,14.0,48,0.00,,,-99.99,,2013-10-14 00:32:00,
2013-10-13 17:42:00,48.0,29.0,-100.00,ENE,71,5.0,14.0,48,0.00,,,-99.99,,2013-10-14 00:42:00,
2013-10-13 17:52:00,47.0,29.0,-100.00,ENE,71,4.0,16.0,49,0.00,,,-99.99,,2013-10-14 00:52:00,
2013-10-13 18:11:00,46.0,29.0,-100.00,NNE,28,5.0,13.0,51,0.00,,,-99.99,,2013-10-14 01:11:00,
2013-10-13 18:42:00,45.0,29.0,-100.00,NE,42,4.0,13.0,54,0.00,,,-99.99,,2013-10-14 01:42:00,
2013-10-13 19:11:00,43.0,28.0,-100.00,NE,42,4.0,12.0,56,0.00,,,-99.99,,2013-10-14 02:11:00,
2013-10-13 19:21:00,42.0,28.0,-100.00,NNE,28,4.0,11.0,57,0.00,,,-99.99,,2013-10-14 02:21:00,
2013-10-13 19:42:00,42.0,28.0,-100.00,NE,47,3.0,9.0,58,0.00,,,-99.99,,2013-10-14 02:42:00,
2013-10-13 20:12:00,42.0,29.0,-100.00,NE,37,4.0,12.0,59,0.00,,,-99.99,,2013-10-14 03:12:00,
2013-10-13 20:22:00,41.0,29.0,-100.00,NE,47,4.0,10.0,61,0.00,,,-99.99,,2013-10-14 03:22:00,
2013-10-13 20:44:00,41.0,29.0,-100.00,NE,38,4.0,12.0,62,0.00,,,-99.99,,2013-10-14 03:44:00,
2013-10-13 21:24:00,40.0,28.0,-100.00,NNE,23,5.0,15.0,63,0.00,,,-99.99,,2013-10-14 04:24:00,
2013-10-13 21:43:00,40.0,29.0,-100.00,NNE,14,5.0,13.0,64,0.00,,,-99.99,,2013-10-14 04:43:00,
2013-10-13 22:12:00,40.0,29.0,-100.00,NNE,21,4.0,13.0,64,0.00,,,-99.99,,2013-10-14 05:12:00,
2013-10-13 22:43:00,39.0,28.0,-100.00,NNE,23,4.0,12.0,64,0.00,,,-99.99,,2013-10-14 05:43:00,
2013-10-13 22:52:00,39.0,28.0,-100.00,NNE,31,5.0,12.0,64,0.00,,,-99.99,,2013-10-14 05:52:00,
2013-10-13 23:12:00,39.0,28.0,-100.00,NNE,20,3.0,9.0,64,0.00,,,-99.99,,2013-10-14 06:12:00,
2013-10-13 23:42:00,39.0,28.0,-100.00,North,3,4.0,11.0,64,0.00,,,-99.99,,2013-10-14 06:42:00,
2013-10-13 23:52:00,39.0,27.0,-100.00,North,11,5.0,13.0,63,0.00,,,-99.99,,2013-10-14 06:52:00,